sensor_id;sensor_type;location;lat;lon;timestamp;temperature;humidity
1956;DHT22;978;48.314;11.562;2022-11-18T00:00:37;22.30;76.50
1956;DHT22;978;48.314;11.562;2022-11-18T00:03:03;22.30;76.50
1956;DHT22;978;48.314;11.562;2022-11-18T00:05:32;22.30;76.50
1956;DHT22;978;48.314;11.562;2022-11-18T00:07:58;22.30;76.50
1956;DHT22;978;48.314;11.562;2022-11-18T00:10:25;22.30;76.50
1956;DHT22;978;48.314;11.562;2022-11-18T00:12:53;22.30;76.40
1956;DHT22;978;48.314;11.562;2022-11-18T00:15:37;22.40;76.50
1956;DHT22;978;48.314;11.562;2022-11-18T00:18:05;22.30;76.40
1956;DHT22;978;48.314;11.562;2022-11-18T00:20:33;22.30;76.40
1956;DHT22;978;48.314;11.562;2022-11-18T00:23:00;22.30;76.40
1956;DHT22;978;48.314;11.562;2022-11-18T00:25:27;22.30;76.40
1956;DHT22;978;48.314;11.562;2022-11-18T00:27:55;22.30;76.30
1956;DHT22;978;48.314;11.562;2022-11-18T00:30:22;22.30;76.30
1956;DHT22;978;48.314;11.562;2022-11-18T00:32:49;22.40;76.40
1956;DHT22;978;48.314;11.562;2022-11-18T00:35:16;22.40;76.40
1956;DHT22;978;48.314;11.562;2022-11-18T00:37:42;22.30;76.30
1956;DHT22;978;48.314;11.562;2022-11-18T00:40:11;22.30;76.30
1956;DHT22;978;48.314;11.562;2022-11-18T00:42:38;22.30;76.30
1956;DHT22;978;48.314;11.562;2022-11-18T00:45:18;22.30;76.30
1956;DHT22;978;48.314;11.562;2022-11-18T00:47:45;22.30;76.30
1956;DHT22;978;48.314;11.562;2022-11-18T00:50:12;22.40;76.30
1956;DHT22;978;48.314;11.562;2022-11-18T00:52:39;22.30;76.30
1956;DHT22;978;48.314;11.562;2022-11-18T00:55:08;22.40;76.30
1956;DHT22;978;48.314;11.562;2022-11-18T00:57:35;22.30;76.30
1956;DHT22;978;48.314;11.562;2022-11-18T01:00:02;22.30;76.20
1956;DHT22;978;48.314;11.562;2022-11-18T01:02:30;22.30;76.20
1956;DHT22;978;48.314;11.562;2022-11-18T01:04:56;22.40;76.30
1956;DHT22;978;48.314;11.562;2022-11-18T01:07:23;22.30;76.20
1956;DHT22;978;48.314;11.562;2022-11-18T01:09:50;22.30;76.20
1956;DHT22;978;48.314;11.562;2022-11-18T01:12:17;22.30;76.20
1956;DHT22;978;48.314;11.562;2022-11-18T01:15:01;22.30;76.20
1956;DHT22;978;48.314;11.562;2022-11-18T01:17:30;22.30;76.20
1956;DHT22;978;48.314;11.562;2022-11-18T01:19:57;22.40;76.20
1956;DHT22;978;48.314;11.562;2022-11-18T01:22:24;22.30;76.10
1956;DHT22;978;48.314;11.562;2022-11-18T01:24:50;22.40;76.20
1956;DHT22;978;48.314;11.562;2022-11-18T01:27:17;22.30;76.10
1956;DHT22;978;48.314;11.562;2022-11-18T01:29:45;22.30;76.10
1956;DHT22;978;48.314;11.562;2022-11-18T01:32:12;22.40;76.20
1956;DHT22;978;48.314;11.562;2022-11-18T01:34:40;22.30;76.10
1956;DHT22;978;48.314;11.562;2022-11-18T01:37:08;22.30;76.10
1956;DHT22;978;48.314;11.562;2022-11-18T01:39:35;22.30;76.10
1956;DHT22;978;48.314;11.562;2022-11-18T01:42:04;22.40;76.20
1956;DHT22;978;48.314;11.562;2022-11-18T01:44:59;22.30;76.10
1956;DHT22;978;48.314;11.562;2022-11-18T01:47:30;22.30;76.10
1956;DHT22;978;48.314;11.562;2022-11-18T01:49:59;22.40;76.10
1956;DHT22;978;48.314;11.562;2022-11-18T01:52:26;22.40;76.10
1956;DHT22;978;48.314;11.562;2022-11-18T01:54:56;22.30;76.00
1956;DHT22;978;48.314;11.562;2022-11-18T01:57:25;22.40;76.10
1956;DHT22;978;48.314;11.562;2022-11-18T01:59:56;22.30;76.00
1956;DHT22;978;48.314;11.562;2022-11-18T02:02:26;22.30;76.00
1956;DHT22;978;48.314;11.562;2022-11-18T02:04:53;22.30;76.10
1956;DHT22;978;48.314;11.562;2022-11-18T02:07:23;22.30;76.00
1956;DHT22;978;48.314;11.562;2022-11-18T02:09:51;22.30;76.00
1956;DHT22;978;48.314;11.562;2022-11-18T02:12:19;22.30;76.00
1956;DHT22;978;48.314;11.562;2022-11-18T02:14:47;22.30;76.00
1956;DHT22;978;48.314;11.562;2022-11-18T02:17:27;22.30;76.00
1956;DHT22;978;48.314;11.562;2022-11-18T02:29:03;22.30;76.00
1956;DHT22;978;48.314;11.562;2022-11-18T02:31:37;22.30;76.00
1956;DHT22;978;48.314;11.562;2022-11-18T02:34:17;22.40;76.00
1956;DHT22;978;48.314;11.562;2022-11-18T02:36:50;22.30;76.00
1956;DHT22;978;48.314;11.562;2022-11-18T02:39:22;22.30;75.90
1956;DHT22;978;48.314;11.562;2022-11-18T02:41:53;22.30;75.90
1956;DHT22;978;48.314;11.562;2022-11-18T02:44:24;22.40;76.00
1956;DHT22;978;48.314;11.562;2022-11-18T02:46:55;22.30;75.90
1956;DHT22;978;48.314;11.562;2022-11-18T02:49:27;22.30;75.90
1956;DHT22;978;48.314;11.562;2022-11-18T02:51:57;22.30;75.90
1956;DHT22;978;48.314;11.562;2022-11-18T02:54:26;22.30;75.90
1956;DHT22;978;48.314;11.562;2022-11-18T02:56:54;22.30;75.90
1956;DHT22;978;48.314;11.562;2022-11-18T02:59:23;22.30;75.90
1956;DHT22;978;48.314;11.562;2022-11-18T03:01:53;22.30;75.90
1956;DHT22;978;48.314;11.562;2022-11-18T03:04:20;22.30;75.90
1956;DHT22;978;48.314;11.562;2022-11-18T03:06:55;22.30;75.90
1956;DHT22;978;48.314;11.562;2022-11-18T03:09:30;22.30;75.90
1956;DHT22;978;48.314;11.562;2022-11-18T03:12:09;22.30;75.90
1956;DHT22;978;48.314;11.562;2022-11-18T03:14:48;22.30;75.90
1956;DHT22;978;48.314;11.562;2022-11-18T03:17:23;22.30;75.80
1956;DHT22;978;48.314;11.562;2022-11-18T03:20:02;22.30;75.80
1956;DHT22;978;48.314;11.562;2022-11-18T03:22:35;22.40;75.90
1956;DHT22;978;48.314;11.562;2022-11-18T03:25:06;22.30;75.80
1956;DHT22;978;48.314;11.562;2022-11-18T03:27:36;22.30;75.80
1956;DHT22;978;48.314;11.562;2022-11-18T03:30:07;22.30;75.80
1956;DHT22;978;48.314;11.562;2022-11-18T03:32:38;22.30;75.80
1956;DHT22;978;48.314;11.562;2022-11-18T03:35:10;22.40;75.90
1956;DHT22;978;48.314;11.562;2022-11-18T03:37:39;22.30;75.80
1956;DHT22;978;48.314;11.562;2022-11-18T03:40:13;22.30;75.80
1956;DHT22;978;48.314;11.562;2022-11-18T03:42:42;22.30;75.80
1956;DHT22;978;48.314;11.562;2022-11-18T03:45:16;22.30;75.80
1956;DHT22;978;48.314;11.562;2022-11-18T03:47:51;22.30;75.80
1956;DHT22;978;48.314;11.562;2022-11-18T03:50:25;22.30;75.80
1956;DHT22;978;48.314;11.562;2022-11-18T03:52:54;22.30;75.80
1956;DHT22;978;48.314;11.562;2022-11-18T03:55:26;22.30;75.80
1956;DHT22;978;48.314;11.562;2022-11-18T03:57:58;22.30;75.80
1956;DHT22;978;48.314;11.562;2022-11-18T04:00:32;22.30;75.70
1956;DHT22;978;48.314;11.562;2022-11-18T04:03:00;22.30;75.80
1956;DHT22;978;48.314;11.562;2022-11-18T04:05:29;22.30;75.80
1956;DHT22;978;48.314;11.562;2022-11-18T04:08:00;22.30;75.80
1956;DHT22;978;48.314;11.562;2022-11-18T04:10:30;22.30;75.70
1956;DHT22;978;48.314;11.562;2022-11-18T04:13:13;22.30;75.70
1956;DHT22;978;48.314;11.562;2022-11-18T04:15:42;22.40;75.80
1956;DHT22;978;48.314;11.562;2022-11-18T04:18:10;22.30;75.80
1956;DHT22;978;48.314;11.562;2022-11-18T04:20:37;22.40;75.80
1956;DHT22;978;48.314;11.562;2022-11-18T04:23:04;22.30;75.70
1956;DHT22;978;48.314;11.562;2022-11-18T04:25:32;22.40;75.80
1956;DHT22;978;48.314;11.562;2022-11-18T04:27:59;22.40;75.80
1956;DHT22;978;48.314;11.562;2022-11-18T04:30:27;22.30;75.70
1956;DHT22;978;48.314;11.562;2022-11-18T04:32:55;22.30;75.80
1956;DHT22;978;48.314;11.562;2022-11-18T04:35:23;22.30;75.70
1956;DHT22;978;48.314;11.562;2022-11-18T04:37:50;22.30;75.70
1956;DHT22;978;48.314;11.562;2022-11-18T04:40:17;22.30;75.70
1956;DHT22;978;48.314;11.562;2022-11-18T04:42:44;22.30;75.70
1956;DHT22;978;48.314;11.562;2022-11-18T04:45:11;22.30;75.70
1956;DHT22;978;48.314;11.562;2022-11-18T04:47:38;22.30;75.70
1956;DHT22;978;48.314;11.562;2022-11-18T04:50:06;22.30;75.70
1956;DHT22;978;48.314;11.562;2022-11-18T04:52:33;22.30;75.70
1956;DHT22;978;48.314;11.562;2022-11-18T04:55:00;22.40;75.70
1956;DHT22;978;48.314;11.562;2022-11-18T04:57:28;22.30;75.70
1956;DHT22;978;48.314;11.562;2022-11-18T04:59:55;22.40;75.70
1956;DHT22;978;48.314;11.562;2022-11-18T05:02:21;22.30;75.70
1956;DHT22;978;48.314;11.562;2022-11-18T05:04:48;22.30;75.70
1956;DHT22;978;48.314;11.562;2022-11-18T05:07:16;22.30;75.70
1956;DHT22;978;48.314;11.562;2022-11-18T05:09:43;22.30;75.70
1956;DHT22;978;48.314;11.562;2022-11-18T05:12:11;22.30;75.70
1956;DHT22;978;48.314;11.562;2022-11-18T05:14:57;22.30;75.70
1956;DHT22;978;48.314;11.562;2022-11-18T05:17:26;22.30;75.70
1956;DHT22;978;48.314;11.562;2022-11-18T05:19:54;22.30;75.60
1956;DHT22;978;48.314;11.562;2022-11-18T05:22:24;22.30;75.60
1956;DHT22;978;48.314;11.562;2022-11-18T05:24:52;22.40;75.70
1956;DHT22;978;48.314;11.562;2022-11-18T05:27:19;22.30;75.70
1956;DHT22;978;48.314;11.562;2022-11-18T05:29:46;22.30;75.60
1956;DHT22;978;48.314;11.562;2022-11-18T05:32:12;22.30;75.70
1956;DHT22;978;48.314;11.562;2022-11-18T05:34:39;22.30;75.60
1956;DHT22;978;48.314;11.562;2022-11-18T05:37:07;22.30;75.60
1956;DHT22;978;48.314;11.562;2022-11-18T05:39:35;22.30;75.60
1956;DHT22;978;48.314;11.562;2022-11-18T05:42:02;22.30;75.60
1956;DHT22;978;48.314;11.562;2022-11-18T05:44:46;22.30;75.50
1956;DHT22;978;48.314;11.562;2022-11-18T05:47:14;22.30;75.30
1956;DHT22;978;48.314;11.562;2022-11-18T05:49:41;22.30;75.30
1956;DHT22;978;48.314;11.562;2022-11-18T05:52:08;22.30;75.30
1956;DHT22;978;48.314;11.562;2022-11-18T05:54:37;22.30;75.20
1956;DHT22;978;48.314;11.562;2022-11-18T05:57:04;22.30;75.10
1956;DHT22;978;48.314;11.562;2022-11-18T05:59:31;22.30;75.00
1956;DHT22;978;48.314;11.562;2022-11-18T06:02:01;22.30;74.60
1956;DHT22;978;48.314;11.562;2022-11-18T06:04:33;22.30;74.70
1956;DHT22;978;48.314;11.562;2022-11-18T06:07:06;22.30;74.50
1956;DHT22;978;48.314;11.562;2022-11-18T06:09:38;22.30;74.40
1956;DHT22;978;48.314;11.562;2022-11-18T06:12:07;22.30;74.30
1956;DHT22;978;48.314;11.562;2022-11-18T06:14:38;22.30;74.10
1956;DHT22;978;48.314;11.562;2022-11-18T06:17:10;22.30;74.00
1956;DHT22;978;48.314;11.562;2022-11-18T06:19:40;22.30;73.90
1956;DHT22;978;48.314;11.562;2022-11-18T06:22:07;22.20;73.60
1956;DHT22;978;48.314;11.562;2022-11-18T06:24:34;22.30;73.60
1956;DHT22;978;48.314;11.562;2022-11-18T06:27:04;22.20;73.40
1956;DHT22;978;48.314;11.562;2022-11-18T06:29:31;22.30;73.40
1956;DHT22;978;48.314;11.562;2022-11-18T06:31:58;22.20;73.30
1956;DHT22;978;48.314;11.562;2022-11-18T06:34:25;22.30;73.20
1956;DHT22;978;48.314;11.562;2022-11-18T06:36:51;22.30;73.10
1956;DHT22;978;48.314;11.562;2022-11-18T06:39:18;22.20;73.00
1956;DHT22;978;48.314;11.562;2022-11-18T06:41:45;22.20;73.00
1956;DHT22;978;48.314;11.562;2022-11-18T06:44:13;22.30;73.00
1956;DHT22;978;48.314;11.562;2022-11-18T06:46:39;22.20;72.80
1956;DHT22;978;48.314;11.562;2022-11-18T06:49:21;22.20;72.80
1956;DHT22;978;48.314;11.562;2022-11-18T06:51:48;22.20;72.60
1956;DHT22;978;48.314;11.562;2022-11-18T06:54:15;22.30;72.60
1956;DHT22;978;48.314;11.562;2022-11-18T06:56:42;22.30;72.50
1956;DHT22;978;48.314;11.562;2022-11-18T06:59:09;22.20;72.40
1956;DHT22;978;48.314;11.562;2022-11-18T07:01:38;22.20;72.30
1956;DHT22;978;48.314;11.562;2022-11-18T07:04:06;22.30;72.40
1956;DHT22;978;48.314;11.562;2022-11-18T07:06:34;22.30;72.30
1956;DHT22;978;48.314;11.562;2022-11-18T07:09:02;22.20;72.20
1956;DHT22;978;48.314;11.562;2022-11-18T07:11:30;22.20;72.20
1956;DHT22;978;48.314;11.562;2022-11-18T07:13:56;22.30;72.20
1956;DHT22;978;48.314;11.562;2022-11-18T07:16:24;22.30;72.10
1956;DHT22;978;48.314;11.562;2022-11-18T07:18:54;22.30;72.00
1956;DHT22;978;48.314;11.562;2022-11-18T07:21:22;22.30;72.00
1956;DHT22;978;48.314;11.562;2022-11-18T07:23:49;22.30;71.90
1956;DHT22;978;48.314;11.562;2022-11-18T07:26:17;22.30;71.80
1956;DHT22;978;48.314;11.562;2022-11-18T07:28:44;22.30;71.70
1956;DHT22;978;48.314;11.562;2022-11-18T07:31:13;22.20;71.60
1956;DHT22;978;48.314;11.562;2022-11-18T07:33:41;22.20;71.60
1956;DHT22;978;48.314;11.562;2022-11-18T07:36:11;22.20;71.50
1956;DHT22;978;48.314;11.562;2022-11-18T07:38:38;22.20;71.50
1956;DHT22;978;48.314;11.562;2022-11-18T07:41:07;22.20;71.40
1956;DHT22;978;48.314;11.562;2022-11-18T07:43:35;22.20;71.40
1956;DHT22;978;48.314;11.562;2022-11-18T07:46:09;22.30;71.30
1956;DHT22;978;48.314;11.562;2022-11-18T07:48:36;22.30;71.20
1956;DHT22;978;48.314;11.562;2022-11-18T07:51:03;22.30;71.40
1956;DHT22;978;48.314;11.562;2022-11-18T07:53:32;22.20;71.30
1956;DHT22;978;48.314;11.562;2022-11-18T07:55:59;22.30;71.30
1956;DHT22;978;48.314;11.562;2022-11-18T07:58:26;22.30;71.30
1956;DHT22;978;48.314;11.562;2022-11-18T08:00:53;22.30;71.30
1956;DHT22;978;48.314;11.562;2022-11-18T08:03:24;22.30;71.70
1956;DHT22;978;48.314;11.562;2022-11-18T08:05:50;22.30;70.90
1956;DHT22;978;48.314;11.562;2022-11-18T08:08:17;22.30;71.00
1956;DHT22;978;48.314;11.562;2022-11-18T08:10:45;22.20;71.00
1956;DHT22;978;48.314;11.562;2022-11-18T08:13:12;22.30;71.00
1956;DHT22;978;48.314;11.562;2022-11-18T08:15:39;22.20;70.90
1956;DHT22;978;48.314;11.562;2022-11-18T08:18:06;22.30;71.00
1956;DHT22;978;48.314;11.562;2022-11-18T08:20:33;22.20;71.00
1956;DHT22;978;48.314;11.562;2022-11-18T08:23:00;22.20;70.90
1956;DHT22;978;48.314;11.562;2022-11-18T08:25:27;22.30;71.10
1956;DHT22;978;48.314;11.562;2022-11-18T08:27:55;22.30;71.00
1956;DHT22;978;48.314;11.562;2022-11-18T08:30:21;22.30;70.90
1956;DHT22;978;48.314;11.562;2022-11-18T08:32:48;22.30;70.90
1956;DHT22;978;48.314;11.562;2022-11-18T08:35:15;22.30;71.00
1956;DHT22;978;48.314;11.562;2022-11-18T08:37:42;22.30;71.60
1956;DHT22;978;48.314;11.562;2022-11-18T08:40:09;22.30;71.00
1956;DHT22;978;48.314;11.562;2022-11-18T08:42:36;22.30;71.00
1956;DHT22;978;48.314;11.562;2022-11-18T08:45:05;22.30;71.00
1956;DHT22;978;48.314;11.562;2022-11-18T08:47:33;22.30;71.00
1956;DHT22;978;48.314;11.562;2022-11-18T08:50:00;22.30;70.80
1956;DHT22;978;48.314;11.562;2022-11-18T08:52:27;22.30;70.90
1956;DHT22;978;48.314;11.562;2022-11-18T08:54:53;22.30;70.90
1956;DHT22;978;48.314;11.562;2022-11-18T08:57:20;22.30;70.90
1956;DHT22;978;48.314;11.562;2022-11-18T08:59:48;22.20;70.80
1956;DHT22;978;48.314;11.562;2022-11-18T09:02:19;22.30;70.80
1956;DHT22;978;48.314;11.562;2022-11-18T09:04:47;22.30;70.70
1956;DHT22;978;48.314;11.562;2022-11-18T09:07:14;22.30;71.40
1956;DHT22;978;48.314;11.562;2022-11-18T09:09:41;22.30;70.50
1956;DHT22;978;48.314;11.562;2022-11-18T09:12:08;22.20;70.50
1956;DHT22;978;48.314;11.562;2022-11-18T09:14:40;22.30;70.50
1956;DHT22;978;48.314;11.562;2022-11-18T09:17:07;22.20;70.50
1956;DHT22;978;48.314;11.562;2022-11-18T09:19:35;22.30;70.50
1956;DHT22;978;48.314;11.562;2022-11-18T09:22:02;22.30;70.50
1956;DHT22;978;48.314;11.562;2022-11-18T09:24:29;22.30;70.40
1956;DHT22;978;48.314;11.562;2022-11-18T09:26:56;22.30;70.40
1956;DHT22;978;48.314;11.562;2022-11-18T09:29:23;22.20;70.20
1956;DHT22;978;48.314;11.562;2022-11-18T09:31:50;22.20;70.30
1956;DHT22;978;48.314;11.562;2022-11-18T09:34:17;22.20;70.30
1956;DHT22;978;48.314;11.562;2022-11-18T09:36:46;22.30;70.30
1956;DHT22;978;48.314;11.562;2022-11-18T09:39:12;22.30;70.20
1956;DHT22;978;48.314;11.562;2022-11-18T09:41:44;22.30;70.20
1956;DHT22;978;48.314;11.562;2022-11-18T09:44:29;22.30;70.10
1956;DHT22;978;48.314;11.562;2022-11-18T09:47:06;22.30;70.30
1956;DHT22;978;48.314;11.562;2022-11-18T09:49:42;22.30;70.20
1956;DHT22;978;48.314;11.562;2022-11-18T09:52:17;22.20;70.10
1956;DHT22;978;48.314;11.562;2022-11-18T09:54:47;22.30;70.20
1956;DHT22;978;48.314;11.562;2022-11-18T09:57:16;22.20;70.10
1956;DHT22;978;48.314;11.562;2022-11-18T09:59:45;22.30;70.10
1956;DHT22;978;48.314;11.562;2022-11-18T10:02:40;22.20;70.00
1956;DHT22;978;48.314;11.562;2022-11-18T10:05:15;22.20;70.00
1956;DHT22;978;48.314;11.562;2022-11-18T10:07:53;22.30;70.10
1956;DHT22;978;48.314;11.562;2022-11-18T10:10:26;22.20;70.00
1956;DHT22;978;48.314;11.562;2022-11-18T10:12:57;22.30;70.00
1956;DHT22;978;48.314;11.562;2022-11-18T10:15:31;22.20;69.80
1956;DHT22;978;48.314;11.562;2022-11-18T10:18:07;22.20;69.80
1956;DHT22;978;48.314;11.562;2022-11-18T10:20:50;22.20;69.70
1956;DHT22;978;48.314;11.562;2022-11-18T10:23:26;22.20;69.70
1956;DHT22;978;48.314;11.562;2022-11-18T10:25:54;22.20;69.40
1956;DHT22;978;48.314;11.562;2022-11-18T10:28:23;22.20;69.30
1956;DHT22;978;48.314;11.562;2022-11-18T10:30:50;22.20;69.30
1956;DHT22;978;48.314;11.562;2022-11-18T10:33:23;22.20;69.40
1956;DHT22;978;48.314;11.562;2022-11-18T10:35:51;22.20;69.20
1956;DHT22;978;48.314;11.562;2022-11-18T10:38:34;22.30;69.30
1956;DHT22;978;48.314;11.562;2022-11-18T10:41:05;22.20;69.10
1956;DHT22;978;48.314;11.562;2022-11-18T10:43:44;22.20;69.10
1956;DHT22;978;48.314;11.562;2022-11-18T10:46:17;22.20;68.90
1956;DHT22;978;48.314;11.562;2022-11-18T10:48:44;22.20;69.00
1956;DHT22;978;48.314;11.562;2022-11-18T10:51:21;22.20;69.00
1956;DHT22;978;48.314;11.562;2022-11-18T10:53:51;22.20;68.90
1956;DHT22;978;48.314;11.562;2022-11-18T10:56:17;22.20;68.90
1956;DHT22;978;48.314;11.562;2022-11-18T10:58:46;22.20;68.90
1956;DHT22;978;48.314;11.562;2022-11-18T11:01:20;22.20;68.80
1956;DHT22;978;48.314;11.562;2022-11-18T11:03:58;22.20;68.70
1956;DHT22;978;48.314;11.562;2022-11-18T11:06:33;22.20;68.80
1956;DHT22;978;48.314;11.562;2022-11-18T11:09:09;22.20;68.70
1956;DHT22;978;48.314;11.562;2022-11-18T11:11:37;22.20;68.60
1956;DHT22;978;48.314;11.562;2022-11-18T11:14:22;22.20;68.60
1956;DHT22;978;48.314;11.562;2022-11-18T11:17:02;22.20;68.60
1956;DHT22;978;48.314;11.562;2022-11-18T11:19:42;22.20;68.60
1956;DHT22;978;48.314;11.562;2022-11-18T11:22:11;22.20;68.60
1956;DHT22;978;48.314;11.562;2022-11-18T11:24:40;22.20;68.50
1956;DHT22;978;48.314;11.562;2022-11-18T11:27:30;22.20;68.50
1956;DHT22;978;48.314;11.562;2022-11-18T11:30:07;22.20;68.50
1956;DHT22;978;48.314;11.562;2022-11-18T11:32:56;22.20;68.40
1956;DHT22;978;48.314;11.562;2022-11-18T11:35:27;22.20;68.40
1956;DHT22;978;48.314;11.562;2022-11-18T11:37:58;22.20;68.30
1956;DHT22;978;48.314;11.562;2022-11-18T11:40:31;22.20;68.30
1956;DHT22;978;48.314;11.562;2022-11-18T11:43:11;22.20;68.30
1956;DHT22;978;48.314;11.562;2022-11-18T11:45:51;22.20;68.20
1956;DHT22;978;48.314;11.562;2022-11-18T11:48:29;22.20;68.20
1956;DHT22;978;48.314;11.562;2022-11-18T11:51:07;22.20;68.30
1956;DHT22;978;48.314;11.562;2022-11-18T11:56:32;22.20;68.00
1956;DHT22;978;48.314;11.562;2022-11-18T11:59:07;22.20;68.20
1956;DHT22;978;48.314;11.562;2022-11-18T12:01:45;22.20;68.10
1956;DHT22;978;48.314;11.562;2022-11-18T12:04:27;22.20;68.20
1956;DHT22;978;48.314;11.562;2022-11-18T12:06:57;22.20;68.20
1956;DHT22;978;48.314;11.562;2022-11-18T12:09:35;22.20;68.20
1956;DHT22;978;48.314;11.562;2022-11-18T12:12:09;22.20;68.30
1956;DHT22;978;48.314;11.562;2022-11-18T12:14:56;22.20;68.30
1956;DHT22;978;48.314;11.562;2022-11-18T12:17:32;22.20;68.30
1956;DHT22;978;48.314;11.562;2022-11-18T12:19:59;22.20;68.40
1956;DHT22;978;48.314;11.562;2022-11-18T12:23:10;22.20;68.40
1956;DHT22;978;48.314;11.562;2022-11-18T12:25:52;22.20;68.40
1956;DHT22;978;48.314;11.562;2022-11-18T12:28:25;22.30;68.60
1956;DHT22;978;48.314;11.562;2022-11-18T12:31:30;22.20;68.50
1956;DHT22;978;48.314;11.562;2022-11-18T12:34:00;22.30;68.60
1956;DHT22;978;48.314;11.562;2022-11-18T12:36:29;22.30;68.70
1956;DHT22;978;48.314;11.562;2022-11-18T12:38:57;22.20;68.70
1956;DHT22;978;48.314;11.562;2022-11-18T12:41:51;22.20;68.70
1956;DHT22;978;48.314;11.562;2022-11-18T12:44:38;22.20;68.70
1956;DHT22;978;48.314;11.562;2022-11-18T12:47:05;22.30;68.80
1956;DHT22;978;48.314;11.562;2022-11-18T12:52:50;22.30;68.70
1956;DHT22;978;48.314;11.562;2022-11-18T12:55:21;22.30;68.70
1956;DHT22;978;48.314;11.562;2022-11-18T12:57:50;22.20;68.60
1956;DHT22;978;48.314;11.562;2022-11-18T13:00:30;22.30;68.70
1956;DHT22;978;48.314;11.562;2022-11-18T13:02:59;22.20;68.60
1956;DHT22;978;48.314;11.562;2022-11-18T13:05:27;22.20;68.60
1956;DHT22;978;48.314;11.562;2022-11-18T13:07:56;22.20;68.60
1956;DHT22;978;48.314;11.562;2022-11-18T13:10:46;22.20;68.60
1956;DHT22;978;48.314;11.562;2022-11-18T13:13:22;22.20;68.50
1956;DHT22;978;48.314;11.562;2022-11-18T13:15:51;22.20;68.50
1956;DHT22;978;48.314;11.562;2022-11-18T13:18:46;22.20;68.50
1956;DHT22;978;48.314;11.562;2022-11-18T13:21:19;22.20;68.40
1956;DHT22;978;48.314;11.562;2022-11-18T13:24:05;22.20;68.40
1956;DHT22;978;48.314;11.562;2022-11-18T13:26:33;22.20;68.30
1956;DHT22;978;48.314;11.562;2022-11-18T13:29:21;22.20;68.30
1956;DHT22;978;48.314;11.562;2022-11-18T13:32:03;22.20;68.30
1956;DHT22;978;48.314;11.562;2022-11-18T13:34:42;22.20;68.30
1956;DHT22;978;48.314;11.562;2022-11-18T13:37:14;22.20;68.20
1956;DHT22;978;48.314;11.562;2022-11-18T13:39:43;22.20;68.20
1956;DHT22;978;48.314;11.562;2022-11-18T13:42:17;22.20;68.80
1956;DHT22;978;48.314;11.562;2022-11-18T13:44:45;22.20;68.10
1956;DHT22;978;48.314;11.562;2022-11-18T13:47:25;22.20;68.00
1956;DHT22;978;48.314;11.562;2022-11-18T13:50:03;22.20;68.10
1956;DHT22;978;48.314;11.562;2022-11-18T13:52:34;22.30;68.10
1956;DHT22;978;48.314;11.562;2022-11-18T13:55:11;22.20;68.00
1956;DHT22;978;48.314;11.562;2022-11-18T13:57:39;22.20;68.10
1956;DHT22;978;48.314;11.562;2022-11-18T14:00:20;22.20;68.00
1956;DHT22;978;48.314;11.562;2022-11-18T14:02:54;22.20;68.00
1956;DHT22;978;48.314;11.562;2022-11-18T14:05:24;22.20;68.00
1956;DHT22;978;48.314;11.562;2022-11-18T14:08:04;22.20;67.90
1956;DHT22;978;48.314;11.562;2022-11-18T14:10:38;22.20;67.90
1956;DHT22;978;48.314;11.562;2022-11-18T14:13:17;22.20;67.90
1956;DHT22;978;48.314;11.562;2022-11-18T14:15:45;22.20;67.90
1956;DHT22;978;48.314;11.562;2022-11-18T14:18:19;22.20;67.90
1956;DHT22;978;48.314;11.562;2022-11-18T14:20:50;22.20;67.80
1956;DHT22;978;48.314;11.562;2022-11-18T14:23:21;22.20;67.80
1956;DHT22;978;48.314;11.562;2022-11-18T14:25:50;22.20;67.80
1956;DHT22;978;48.314;11.562;2022-11-18T14:28:20;22.20;67.80
1956;DHT22;978;48.314;11.562;2022-11-18T14:31:20;22.20;67.70
1956;DHT22;978;48.314;11.562;2022-11-18T14:34:10;22.20;67.80
1956;DHT22;978;48.314;11.562;2022-11-18T14:36:43;22.20;67.80
1956;DHT22;978;48.314;11.562;2022-11-18T14:39:21;22.20;67.90
1956;DHT22;978;48.314;11.562;2022-11-18T14:41:48;22.20;68.00
1956;DHT22;978;48.314;11.562;2022-11-18T14:44:15;22.20;68.10
1956;DHT22;978;48.314;11.562;2022-11-18T14:46:45;22.20;68.20
1956;DHT22;978;48.314;11.562;2022-11-18T14:49:17;22.20;68.30
1956;DHT22;978;48.314;11.562;2022-11-18T14:51:46;22.20;68.30
1956;DHT22;978;48.314;11.562;2022-11-18T14:54:14;22.20;68.40
1956;DHT22;978;48.314;11.562;2022-11-18T14:56:41;22.20;68.50
1956;DHT22;978;48.314;11.562;2022-11-18T14:59:10;22.20;68.60
1956;DHT22;978;48.314;11.562;2022-11-18T15:01:38;22.30;68.70
1956;DHT22;978;48.314;11.562;2022-11-18T15:04:05;22.20;68.70
1956;DHT22;978;48.314;11.562;2022-11-18T15:06:34;22.20;68.80
1956;DHT22;978;48.314;11.562;2022-11-18T15:09:04;22.20;68.80
1956;DHT22;978;48.314;11.562;2022-11-18T15:11:30;22.20;68.80
1956;DHT22;978;48.314;11.562;2022-11-18T15:13:57;22.20;68.90
1956;DHT22;978;48.314;11.562;2022-11-18T15:16:26;22.20;69.00
1956;DHT22;978;48.314;11.562;2022-11-18T15:18:56;22.20;69.10
1956;DHT22;978;48.314;11.562;2022-11-18T15:21:24;22.20;69.10
1956;DHT22;978;48.314;11.562;2022-11-18T15:23:53;22.20;69.10
1956;DHT22;978;48.314;11.562;2022-11-18T15:26:21;22.20;69.20
1956;DHT22;978;48.314;11.562;2022-11-18T15:28:50;22.20;69.20
1956;DHT22;978;48.314;11.562;2022-11-18T15:31:17;22.20;69.30
1956;DHT22;978;48.314;11.562;2022-11-18T15:33:45;22.20;69.30
1956;DHT22;978;48.314;11.562;2022-11-18T15:36:15;22.20;69.40
1956;DHT22;978;48.314;11.562;2022-11-18T15:38:42;22.20;69.40
1956;DHT22;978;48.314;11.562;2022-11-18T15:41:15;22.20;69.40
1956;DHT22;978;48.314;11.562;2022-11-18T15:43:43;22.20;69.50
1956;DHT22;978;48.314;11.562;2022-11-18T15:46:10;22.20;69.50
1956;DHT22;978;48.314;11.562;2022-11-18T15:48:37;22.20;69.60
1956;DHT22;978;48.314;11.562;2022-11-18T15:51:04;22.30;69.70
1956;DHT22;978;48.314;11.562;2022-11-18T15:53:31;22.20;69.70
1956;DHT22;978;48.314;11.562;2022-11-18T15:58:52;22.20;69.70
1956;DHT22;978;48.314;11.562;2022-11-18T16:01:20;22.20;69.80
1956;DHT22;978;48.314;11.562;2022-11-18T16:03:46;22.20;69.80
1956;DHT22;978;48.314;11.562;2022-11-18T16:06:13;22.20;70.00
1956;DHT22;978;48.314;11.562;2022-11-18T16:08:40;22.20;70.10
1956;DHT22;978;48.314;11.562;2022-11-18T16:11:09;22.20;70.20
1956;DHT22;978;48.314;11.562;2022-11-18T16:13:59;22.20;70.20
1956;DHT22;978;48.314;11.562;2022-11-18T16:16:26;22.20;70.30
1956;DHT22;978;48.314;11.562;2022-11-18T16:18:54;22.20;70.30
1956;DHT22;978;48.314;11.562;2022-11-18T16:21:22;22.20;70.40
1956;DHT22;978;48.314;11.562;2022-11-18T16:23:48;22.20;70.50
1956;DHT22;978;48.314;11.562;2022-11-18T16:26:15;22.20;70.50
1956;DHT22;978;48.314;11.562;2022-11-18T16:28:42;22.20;70.50
1956;DHT22;978;48.314;11.562;2022-11-18T16:31:10;22.20;70.50
1956;DHT22;978;48.314;11.562;2022-11-18T16:33:54;22.20;70.60
1956;DHT22;978;48.314;11.562;2022-11-18T16:36:24;22.20;70.60
1956;DHT22;978;48.314;11.562;2022-11-18T16:38:51;22.20;70.60
1956;DHT22;978;48.314;11.562;2022-11-18T16:41:18;22.20;70.60
1956;DHT22;978;48.314;11.562;2022-11-18T16:43:56;22.20;70.70